MMPB/PBC METAR and TAF weather

Enter ICAO airport designator
Station Type Date Time Source
MMPB METAR 2022/06/30 00:32 UTC NOAA

MMPB 300032Z 08008KT 5SM -RA SCT020CB BKN090 18/11 A3034 RMK 8/360 RAB20


Station Type Date Time Source
MMPB Decoded METAR 2022/06/30 00:32 UTC NOAA

Puebla, Pue., Mexico (MMPB) 19-03N 098-10W
Jun 29, 2022 - 08:32 PM EDT / 2022.06.30 0032 UTC
Wind: from the E (080 degrees) at 9 MPH (8 KT):0
Visibility: 5 mile(s):0
Sky conditions: mostly cloudy
Weather: light rain; Cumulonimbus clouds observed
Temperature: 64 F (18 C)
Dew Point: 51 F (11 C)
Relative Humidity: 63%
Pressure (altimeter): 30.34 in. Hg (1027 hPa)
ob: MMPB 300032Z 08008KT 5SM -RA SCT020CB BKN090 18/11 A3034 RMK 8/360 RAB20
cycle: 0

Station Type Date Time Source
MMPB TAF 2022/06/29 18:45 UTC NOAA

TAF MMPB 291641Z 2918/3018 06010KT P6SM SCT020
FM292100 12012KT P6SM BKN025
TEMPO 2922/3002 5SM TSRA BKN020CB
FM300300 00000KT P6SM SCT020 BKN080
FM301200 00000KT P6SM SCT100

Example: see airport list